Terminal Aerodrome Forecast
Issued by NWS

Home | Current Version | Previous Version | Text Only | Print | Product List | Glossary On
Versions: 1 2 3 4 5 6 7 8 9 10 11 12 13 14 15 16 17
000
FTUS45 KPIH 292320
TAFSUN
TAF
KSUN 292320Z 3000/3024 15007KT P6SM SCT070 SCT250
     FM300300 30007KT P6SM SCT250
     FM301700 15008KT P6SM FEW100 BKN200
      AMD LTD TO CLD VIS AND WIND 3005/3013=

USA.gov is the U.S. government's official web portal to all federal, state and local government web resources and services.